createdAt,value
2023-02-01T00:01:14.178Z,82.51
2023-02-01T00:03:46.263Z,81.88
2023-02-01T00:06:18.285Z,82.17
2023-02-01T00:08:50.468Z,81.80
2023-02-01T00:11:23.832Z,82.45
2023-02-01T00:13:55.958Z,82.24
2023-02-01T00:16:30.392Z,82.52
2023-02-01T00:19:14.308Z,82.22
2023-02-01T00:21:46.919Z,82.53
2023-02-01T00:24:18.848Z,82.45
2023-02-01T00:26:50.817Z,82.83
2023-02-01T00:29:23.152Z,82.40
2023-02-01T00:31:55.123Z,82.46
2023-02-01T00:34:27.844Z,82.09
2023-02-01T00:37:01.574Z,82.45
2023-02-01T00:39:33.558Z,82.36
2023-02-01T00:42:05.533Z,82.00
2023-02-01T00:44:37.556Z,81.93
2023-02-01T00:47:09.503Z,82.07
2023-02-01T00:49:41.519Z,82.27
2023-02-01T00:52:13.486Z,82.61
2023-02-01T00:54:45.413Z,82.68
2023-02-01T00:57:17.394Z,82.40
2023-02-01T00:59:49.309Z,82.65
2023-02-01T01:02:21.286Z,81.87
2023-02-01T01:04:53.277Z,81.76
2023-02-01T01:07:25.314Z,81.91
2023-02-01T01:09:57.987Z,81.62
2023-02-01T01:12:31.463Z,81.32
2023-02-01T01:15:04.231Z,81.62
2023-02-01T01:17:36.280Z,80.60
2023-02-01T01:20:08.783Z,80.33
2023-02-01T01:22:40.860Z,79.95
2023-02-01T01:25:12.725Z,80.05
2023-02-01T01:27:44.587Z,80.23
2023-02-01T01:30:17.554Z,80.11
2023-02-01T01:32:50.594Z,79.89
2023-02-01T01:35:22.602Z,79.94
2023-02-01T01:37:54.520Z,79.93
2023-02-01T01:40:27.895Z,79.61
2023-02-01T01:42:59.935Z,79.19
2023-02-01T01:45:35.403Z,79.03
2023-02-01T01:48:14.953Z,78.98
2023-02-01T01:51:02.622Z,78.62
2023-02-01T01:53:51.382Z,79.27
2023-02-01T01:56:23.837Z,78.48
2023-02-01T01:58:56.317Z,78.02
2023-02-01T02:01:29.211Z,77.15
2023-02-01T02:04:01.999Z,76.90
2023-02-01T02:06:33.944Z,76.38
2023-02-01T02:09:07.155Z,76.10
2023-02-01T02:11:39.232Z,76.17
2023-02-01T02:14:15.418Z,76.22
2023-02-01T02:17:01.458Z,76.05
2023-02-01T02:20:12.211Z,75.53
2023-02-01T02:23:02.264Z,74.56
2023-02-01T02:25:58.696Z,74.88
2023-02-01T02:29:12.153Z,74.67
2023-02-01T02:32:14.413Z,74.32
2023-02-01T02:35:07.773Z,74.15
2023-02-01T02:37:51.836Z,74.56
2023-02-01T02:40:40.347Z,74.15
2023-02-01T02:43:47.988Z,74.08
2023-02-01T02:46:46.490Z,74.27
2023-02-01T02:49:34.428Z,74.17
2023-02-01T02:52:40.722Z,74.06
2023-02-01T02:55:13.251Z,73.74
2023-02-01T02:58:04.906Z,74.01
2023-02-01T03:00:56.612Z,74.14
2023-02-01T03:03:47.225Z,74.53
2023-02-01T03:06:19.977Z,74.76
2023-02-01T03:08:55.361Z,75.44
2023-02-01T03:11:50.311Z,75.83
2023-02-01T03:14:30.764Z,75.90
2023-02-01T03:17:09.475Z,75.92
2023-02-01T03:19:50.674Z,75.76
2023-02-01T03:22:27.535Z,75.90
2023-02-01T03:25:06.515Z,75.55
2023-02-01T03:27:53.375Z,75.37
2023-02-01T03:30:33.125Z,75.29
2023-02-01T03:33:14.989Z,75.43
2023-02-01T03:36:05.419Z,76.23
2023-02-01T03:38:42.474Z,76.58
2023-02-01T03:41:21.041Z,76.50
2023-02-01T03:43:57.645Z,76.71
2023-02-01T03:46:35.517Z,77.24
2023-02-01T03:49:11.984Z,77.50
2023-02-01T03:51:44.018Z,77.22
2023-02-01T03:54:18.854Z,77.60
2023-02-01T03:56:53.111Z,77.30
2023-02-01T03:59:25.397Z,76.40
2023-02-01T04:01:57.490Z,76.38
2023-02-01T04:04:29.460Z,76.01
2023-02-01T04:07:01.786Z,75.95
2023-02-01T04:09:33.714Z,75.80
2023-02-01T04:12:05.754Z,74.90
2023-02-01T04:14:37.693Z,74.82
2023-02-01T04:17:09.700Z,74.11
2023-02-01T04:19:41.623Z,74.27
2023-02-01T04:24:45.496Z,73.04
2023-02-01T04:27:17.793Z,72.38
2023-02-01T04:29:51.031Z,72.56
2023-02-01T04:32:23.037Z,72.08
2023-02-01T04:34:54.990Z,72.63
2023-02-01T04:37:26.840Z,72.53
2023-02-01T04:39:58.733Z,72.72
2023-02-01T04:42:31.757Z,72.45
2023-02-01T04:45:04.308Z,72.39
2023-02-01T04:47:36.454Z,72.77
2023-02-01T04:50:11.673Z,72.18
2023-02-01T04:52:43.611Z,71.59
2023-02-01T04:55:15.713Z,71.55
2023-02-01T04:57:47.642Z,71.55
2023-02-01T05:00:19.849Z,71.36
2023-02-01T05:02:52.026Z,71.26
2023-02-01T05:05:24.013Z,70.88
2023-02-01T05:07:56.797Z,70.87
2023-02-01T05:10:28.726Z,71.16
2023-02-01T05:13:19.229Z,71.02
2023-02-01T05:15:52.311Z,71.04
2023-02-01T05:18:24.318Z,71.30
2023-02-01T05:20:57.034Z,70.76
2023-02-01T05:23:29.137Z,70.66
2023-02-01T05:26:02.318Z,70.27
2023-02-01T05:28:34.334Z,69.86
2023-02-01T05:31:11.580Z,69.75
2023-02-01T05:33:43.893Z,70.56
2023-02-01T05:36:16.148Z,70.40
2023-02-01T05:38:48.337Z,70.73
2023-02-01T05:41:20.459Z,70.27
2023-02-01T05:43:52.438Z,69.97
2023-02-01T05:46:24.814Z,69.79
2023-02-01T05:48:56.770Z,69.63
2023-02-01T05:51:28.675Z,69.88
2023-02-01T05:54:00.606Z,70.68
2023-02-01T05:56:32.537Z,70.65
2023-02-01T05:59:04.516Z,70.64
2023-02-01T06:01:36.508Z,70.46
2023-02-01T06:04:08.747Z,71.23
2023-02-01T06:06:41.939Z,70.83
2023-02-01T06:09:13.919Z,71.10
2023-02-01T06:11:45.845Z,70.71
2023-02-01T06:14:17.853Z,71.31
2023-02-01T06:16:49.868Z,71.45
2023-02-01T06:19:22.530Z,71.92
2023-02-01T06:21:54.492Z,71.59
2023-02-01T06:24:26.439Z,71.31
2023-02-01T06:26:58.403Z,71.89
2023-02-01T06:29:30.361Z,72.08
2023-02-01T06:32:02.786Z,71.79
2023-02-01T06:34:35.719Z,71.71
2023-02-01T06:37:07.645Z,72.07
2023-02-01T06:39:39.772Z,71.20
2023-02-01T06:42:11.832Z,71.53
2023-02-01T06:44:43.786Z,70.82
2023-02-01T06:47:15.716Z,70.95
2023-02-01T06:49:47.733Z,70.47
2023-02-01T06:52:19.666Z,70.66
2023-02-01T06:54:51.629Z,70.80
2023-02-01T06:57:23.504Z,70.20
2023-02-01T06:59:55.508Z,69.87
2023-02-01T07:02:27.420Z,70.52
2023-02-01T07:04:59.367Z,69.71
2023-02-01T07:07:31.278Z,70.21
2023-02-01T07:10:03.963Z,70.39
2023-02-01T07:12:36.204Z,68.98
2023-02-01T07:15:08.635Z,68.26
2023-02-01T07:17:40.590Z,68.83
2023-02-01T07:20:12.734Z,68.93
2023-02-01T07:22:44.697Z,69.47
2023-02-01T07:25:16.827Z,68.94
2023-02-01T07:27:48.773Z,68.63
2023-02-01T07:30:21.229Z,68.84
2023-02-01T07:32:53.399Z,69.43
2023-02-01T07:35:25.415Z,68.93
2023-02-01T07:37:59.403Z,68.78
2023-02-01T07:40:31.683Z,68.67
2023-02-01T07:43:03.628Z,68.63
2023-02-01T07:45:37.377Z,68.24
2023-02-01T07:48:09.365Z,68.23
2023-02-01T07:50:41.347Z,68.23
2023-02-01T07:53:13.228Z,68.66
2023-02-01T07:55:45.199Z,68.65
2023-02-01T07:58:17.170Z,68.07
2023-02-01T08:01:08.082Z,67.92
2023-02-01T08:03:39.859Z,68.20
2023-02-01T08:06:11.835Z,68.23
2023-02-01T08:08:46.402Z,68.32
2023-02-01T08:11:19.517Z,67.53
2023-02-01T08:13:51.813Z,67.50
2023-02-01T08:16:24.705Z,67.66
2023-02-01T08:18:58.020Z,67.10
2023-02-01T08:21:37.931Z,67.21
2023-02-01T08:24:11.353Z,67.73
2023-02-01T08:26:43.490Z,67.92
2023-02-01T08:29:15.520Z,67.95
2023-02-01T08:31:47.541Z,67.61
2023-02-01T08:34:19.562Z,68.18
2023-02-01T08:36:53.277Z,68.69
2023-02-01T08:39:26.200Z,69.67
2023-02-01T08:42:16.802Z,69.77
2023-02-01T08:44:48.772Z,69.24
2023-02-01T08:47:20.711Z,69.50
2023-02-01T08:49:53.518Z,69.93
2023-02-01T08:52:25.489Z,70.46
2023-02-01T08:54:57.435Z,71.34
2023-02-01T08:57:29.372Z,71.86
2023-02-01T09:00:01.792Z,72.60
2023-02-01T09:02:33.896Z,74.89
2023-02-01T09:05:07.296Z,76.04
2023-02-01T09:07:40.038Z,74.81
2023-02-01T09:10:12.427Z,74.74
2023-02-01T09:12:44.257Z,74.96
2023-02-01T09:15:16.200Z,74.83
2023-02-01T09:17:48.212Z,73.93
2023-02-01T09:20:22.218Z,74.25
2023-02-01T09:22:58.826Z,74.21
2023-02-01T09:25:30.771Z,73.42
2023-02-01T09:28:02.611Z,73.10
2023-02-01T09:30:34.802Z,72.31
2023-02-01T09:33:06.805Z,71.95
2023-02-01T09:35:39.497Z,71.76
2023-02-01T09:38:11.455Z,70.97
2023-02-01T09:40:47.719Z,70.10
2023-02-01T09:43:40.201Z,70.57
2023-02-01T09:46:34.020Z,69.26
2023-02-01T09:49:13.436Z,69.29
2023-02-01T09:51:49.873Z,68.63
2023-02-01T09:54:26.585Z,68.53
2023-02-01T09:57:10.927Z,67.85
2023-02-01T09:59:46.486Z,68.09
2023-02-01T10:02:26.102Z,67.25
2023-02-01T10:05:01.214Z,66.69
2023-02-01T10:08:07.001Z,66.05
2023-02-01T10:10:49.054Z,66.59
2023-02-01T10:13:33.038Z,65.68
2023-02-01T10:16:26.565Z,65.75
2023-02-01T10:19:29.441Z,65.16
2023-02-01T10:22:10.108Z,65.29
2023-02-01T10:24:58.581Z,64.02
2023-02-01T10:27:35.658Z,63.71
2023-02-01T10:30:13.763Z,63.24
2023-02-01T10:32:46.211Z,63.61
2023-02-01T10:35:23.512Z,64.17
2023-02-01T10:37:57.187Z,64.04
2023-02-01T10:40:29.558Z,64.31
2023-02-01T10:43:04.071Z,64.00
2023-02-01T10:45:36.042Z,64.51
2023-02-01T10:48:09.891Z,63.43
2023-02-01T10:50:55.363Z,63.05
2023-02-01T10:53:39.703Z,63.61
2023-02-01T10:56:12.958Z,63.77
2023-02-01T10:58:48.312Z,63.24
2023-02-01T11:01:35.053Z,64.20
2023-02-01T11:04:11.531Z,65.08
2023-02-01T11:06:46.407Z,64.27
2023-02-01T11:09:26.840Z,63.92
2023-02-01T11:12:01.331Z,64.63
2023-02-01T11:14:40.638Z,64.55
2023-02-01T11:17:15.676Z,64.53
2023-02-01T11:19:57.222Z,63.89
2023-02-01T11:22:30.867Z,64.30
2023-02-01T11:25:10.875Z,64.46
2023-02-01T11:27:54.467Z,64.16
2023-02-01T11:30:39.571Z,64.10
2023-02-01T11:33:21.607Z,63.81
2023-02-01T11:35:53.862Z,64.98
2023-02-01T11:38:31.892Z,64.59
2023-02-01T11:41:23.299Z,64.31
2023-02-01T11:44:00.626Z,64.75
2023-02-01T11:46:35.901Z,64.78
2023-02-01T11:49:34.219Z,65.38
2023-02-01T11:52:17.204Z,66.26
2023-02-01T11:55:02.941Z,67.06
2023-02-01T11:57:37.741Z,67.29
2023-02-01T12:00:35.399Z,67.71
2023-02-01T12:03:13.696Z,68.19
2023-02-01T12:06:06.646Z,67.91
2023-02-01T12:08:46.001Z,67.77
2023-02-01T12:11:37.246Z,66.88
2023-02-01T12:14:20.120Z,65.58
2023-02-01T12:17:34.335Z,64.82
2023-02-01T12:20:09.154Z,64.53
2023-02-01T12:23:16.510Z,64.06
2023-02-01T12:25:57.415Z,64.32
2023-02-01T12:28:35.273Z,64.41
2023-02-01T12:31:16.514Z,64.39
2023-02-01T12:33:51.159Z,65.67
2023-02-01T12:36:33.411Z,65.06
2023-02-01T12:39:05.772Z,64.97
2023-02-01T12:42:02.720Z,66.47
2023-02-01T12:44:57.854Z,67.53
2023-02-01T12:47:36.616Z,67.52
2023-02-01T12:50:29.793Z,68.11
2023-02-01T12:53:21.415Z,68.38
2023-02-01T12:56:01.344Z,68.63
2023-02-01T12:58:56.311Z,69.16
2023-02-01T13:01:46.330Z,70.10
2023-02-01T13:05:00.225Z,70.02
2023-02-01T13:07:41.087Z,71.08
2023-02-01T13:10:16.619Z,72.71
2023-02-01T13:13:13.776Z,72.99
2023-02-01T13:15:50.943Z,72.00
2023-02-01T13:18:27.763Z,72.95
2023-02-01T13:21:12.162Z,73.09
2023-02-01T13:23:47.877Z,73.23
2023-02-01T13:26:20.124Z,73.25
2023-02-01T13:28:57.204Z,73.52
2023-02-01T13:31:37.289Z,72.61
2023-02-01T13:34:31.108Z,72.27
2023-02-01T13:37:31.259Z,72.26
2023-02-01T13:40:24.335Z,72.37
2023-02-01T13:42:59.895Z,71.87
2023-02-01T13:45:36.051Z,72.80
2023-02-01T13:48:21.046Z,72.98
2023-02-01T13:50:57.179Z,73.88
2023-02-01T13:53:38.014Z,74.56
2023-02-01T13:56:18.100Z,76.42
2023-02-01T13:58:50.332Z,77.19
2023-02-01T14:01:22.443Z,77.50
2023-02-01T14:03:59.115Z,77.83
2023-02-01T14:06:31.356Z,79.00
2023-02-01T14:09:09.508Z,78.65
2023-02-01T14:11:56.089Z,78.39
2023-02-01T14:14:28.843Z,78.03
2023-02-01T14:17:01.100Z,78.80
2023-02-01T14:19:34.804Z,78.66
2023-02-01T14:22:16.172Z,78.41
2023-02-01T14:24:56.178Z,78.86
2023-02-01T14:27:32.195Z,78.92
2023-02-01T14:30:09.163Z,78.49
2023-02-01T14:32:48.045Z,78.73
2023-02-01T14:35:28.101Z,78.96
2023-02-01T14:38:08.268Z,79.47
2023-02-01T14:40:40.333Z,79.39
2023-02-01T14:43:31.931Z,79.26
2023-02-01T14:46:04.360Z,79.49
2023-02-01T14:48:36.348Z,79.82
2023-02-01T14:51:09.400Z,79.03
2023-02-01T14:53:44.759Z,79.16
2023-02-01T14:56:21.651Z,79.24
2023-02-01T14:59:11.114Z,79.25
2023-02-01T15:01:53.579Z,79.33
2023-02-01T15:04:27.894Z,78.79
2023-02-01T15:07:12.336Z,79.54
2023-02-01T15:09:47.438Z,79.17
2023-02-01T15:12:28.762Z,79.27
2023-02-01T15:15:25.474Z,79.26
2023-02-01T15:18:01.389Z,78.92
2023-02-01T15:20:34.320Z,79.02
2023-02-01T15:23:17.163Z,78.68
2023-02-01T15:25:49.122Z,78.36
2023-02-01T15:28:21.540Z,77.91
2023-02-01T15:31:04.784Z,78.05
2023-02-01T15:33:36.848Z,78.35
2023-02-01T15:36:18.998Z,78.12
2023-02-01T15:39:13.707Z,77.94
2023-02-01T15:41:50.183Z,78.01
2023-02-01T15:45:00.429Z,78.31
2023-02-01T15:47:33.373Z,77.21
2023-02-01T15:50:17.505Z,77.11
2023-02-01T15:52:51.840Z,77.53
2023-02-01T15:55:43.642Z,77.80
2023-02-01T15:58:21.837Z,77.73
2023-02-01T16:01:08.033Z,77.75
2023-02-01T16:03:43.353Z,78.02
2023-02-01T16:06:24.733Z,77.87
2023-02-01T16:09:05.332Z,76.73
2023-02-01T16:11:56.481Z,77.60
2023-02-01T16:14:28.781Z,77.22
2023-02-01T16:17:00.951Z,76.92
2023-02-01T16:19:32.926Z,77.24
2023-02-01T16:22:04.887Z,77.16
2023-02-01T16:24:36.799Z,76.99
2023-02-01T16:27:08.788Z,76.14
2023-02-01T16:29:42.210Z,76.62
2023-02-01T16:32:20.771Z,75.63
2023-02-01T16:34:54.555Z,76.42
2023-02-01T16:37:28.706Z,75.70
2023-02-01T16:40:00.763Z,75.97
2023-02-01T16:42:32.738Z,74.81
2023-02-01T16:45:05.716Z,75.26
2023-02-01T16:47:39.611Z,75.48
2023-02-01T16:50:23.525Z,74.99
2023-02-01T16:52:55.932Z,75.79
2023-02-01T16:55:29.181Z,75.61
2023-02-01T16:58:01.125Z,75.18
2023-02-01T17:00:37.955Z,75.82
2023-02-01T17:03:12.478Z,75.29
2023-02-01T17:05:47.537Z,75.25
2023-02-01T17:08:35.090Z,75.31
2023-02-01T17:11:08.133Z,75.56
2023-02-01T17:13:42.410Z,75.90
2023-02-01T17:16:23.823Z,75.91
2023-02-01T17:19:11.909Z,76.37
2023-02-01T17:22:01.984Z,75.65
2023-02-01T17:24:46.824Z,76.49
2023-02-01T17:27:20.435Z,76.50
2023-02-01T17:29:54.178Z,76.37
2023-02-01T17:32:26.767Z,76.70
2023-02-01T17:35:01.486Z,77.18
2023-02-01T17:37:34.991Z,77.08
2023-02-01T17:40:07.492Z,77.31
2023-02-01T17:42:39.440Z,77.04
2023-02-01T17:45:33.066Z,77.31
2023-02-01T17:48:06.243Z,77.42
2023-02-01T17:50:39.367Z,77.42
2023-02-01T17:53:11.834Z,76.85
2023-02-01T17:55:46.098Z,76.94
2023-02-01T17:58:18.998Z,76.91
2023-02-01T18:00:51.537Z,76.96
2023-02-01T18:03:29.171Z,77.15
2023-02-01T18:06:01.813Z,76.82
2023-02-01T18:08:34.147Z,76.74
2023-02-01T18:11:16.667Z,76.93
2023-02-01T18:13:50.101Z,77.24
2023-02-01T18:16:26.574Z,76.53
2023-02-01T18:19:02.050Z,76.24
2023-02-01T18:21:43.484Z,76.14
2023-02-01T18:24:17.513Z,76.00
2023-02-01T18:26:52.475Z,76.11
2023-02-01T18:29:24.669Z,76.25
2023-02-01T18:31:56.692Z,75.83
2023-02-01T18:34:30.409Z,76.19
2023-02-01T18:37:02.593Z,75.55
2023-02-01T18:39:34.589Z,75.49
2023-02-01T18:42:06.450Z,75.48
2023-02-01T18:44:38.387Z,75.84
2023-02-01T18:47:11.105Z,76.04
2023-02-01T18:49:43.089Z,75.24
2023-02-01T18:52:15.054Z,75.15
2023-02-01T18:54:58.734Z,75.27
2023-02-01T18:57:33.773Z,75.37
2023-02-01T19:00:08.224Z,75.34
2023-02-01T19:02:40.270Z,74.54
2023-02-01T19:05:13.766Z,74.77
2023-02-01T19:07:46.783Z,75.19
2023-02-01T19:10:24.722Z,75.23
2023-02-01T19:12:57.877Z,74.76
2023-02-01T19:15:30.129Z,74.90
2023-02-01T19:18:02.273Z,74.88
2023-02-01T19:20:34.356Z,74.47
2023-02-01T19:23:06.310Z,74.36
2023-02-01T19:25:38.737Z,74.54
2023-02-01T19:28:11.027Z,74.19
2023-02-01T19:30:43.716Z,73.91
2023-02-01T19:33:17.192Z,73.84
2023-02-01T19:35:49.223Z,73.81
2023-02-01T19:38:21.163Z,74.87
2023-02-01T19:40:55.436Z,74.95
2023-02-01T19:43:29.191Z,75.30
2023-02-01T19:46:03.312Z,75.53
2023-02-01T19:48:35.355Z,75.58
2023-02-01T19:51:08.560Z,75.58
2023-02-01T19:53:40.456Z,75.40
2023-02-01T19:56:12.302Z,75.58
2023-02-01T19:58:44.292Z,75.37
2023-02-01T20:01:15.679Z,75.54
2023-02-01T20:03:47.591Z,75.94
2023-02-01T20:06:19.591Z,75.81
2023-02-01T20:08:51.489Z,75.13
2023-02-01T20:11:26.919Z,75.80
2023-02-01T20:14:00.415Z,74.98
2023-02-01T20:16:32.384Z,75.38
2023-02-01T20:19:05.486Z,75.61
2023-02-01T20:21:38.578Z,75.38
2023-02-01T20:24:17.571Z,75.11
2023-02-01T20:26:50.425Z,75.23
2023-02-01T20:29:23.211Z,75.24
2023-02-01T20:31:55.156Z,75.37
2023-02-01T20:34:27.110Z,75.28
2023-02-01T20:36:58.985Z,74.98
2023-02-01T20:39:30.898Z,74.95
2023-02-01T20:42:02.852Z,74.89
2023-02-01T20:44:34.761Z,74.82
2023-02-01T20:47:06.706Z,74.69
2023-02-01T20:49:40.760Z,74.96
2023-02-01T20:52:12.729Z,74.80
2023-02-01T20:54:44.721Z,74.63
2023-02-01T20:57:16.664Z,74.72
2023-02-01T20:59:50.009Z,74.80
2023-02-01T21:02:21.978Z,74.60
2023-02-01T21:04:53.955Z,74.97
2023-02-01T21:07:25.977Z,74.83
2023-02-01T21:09:57.879Z,74.40
2023-02-01T21:12:29.872Z,74.65
2023-02-01T21:15:02.023Z,74.52
2023-02-01T21:17:34.097Z,74.40
2023-02-01T21:20:06.570Z,74.16
2023-02-01T21:22:38.466Z,73.84
2023-02-01T21:25:10.938Z,74.05
2023-02-01T21:27:42.820Z,74.17
2023-02-01T21:30:15.175Z,74.00
2023-02-01T21:32:50.114Z,74.05
2023-02-01T21:35:22.337Z,74.04
2023-02-01T21:37:54.457Z,74.26
2023-02-01T21:40:26.454Z,73.84
2023-02-01T21:42:58.365Z,74.21
2023-02-01T21:45:30.295Z,74.85
2023-02-01T21:48:03.288Z,74.61
2023-02-01T21:50:36.233Z,74.84
2023-02-01T21:53:08.291Z,74.82
2023-02-01T21:55:40.220Z,74.84
2023-02-01T21:58:15.437Z,75.22
2023-02-01T22:00:47.874Z,74.92
2023-02-01T22:03:19.806Z,75.26
2023-02-01T22:05:52.885Z,74.52
2023-02-01T22:08:24.960Z,74.67
2023-02-01T22:10:58.887Z,74.43
2023-02-01T22:13:31.367Z,74.34
2023-02-01T22:16:03.217Z,74.63
2023-02-01T22:18:35.188Z,74.52
2023-02-01T22:21:07.118Z,74.27
2023-02-01T22:23:39.063Z,74.14
2023-02-01T22:26:14.129Z,74.78
2023-02-01T22:28:46.119Z,74.31
2023-02-01T22:31:19.122Z,74.93
2023-02-01T22:33:51.410Z,75.02
2023-02-01T22:36:25.060Z,74.95
2023-02-01T22:38:58.435Z,75.13
2023-02-01T22:41:30.388Z,75.14
2023-02-01T22:44:02.390Z,75.87
2023-02-01T22:46:34.477Z,75.74
2023-02-01T22:49:06.455Z,76.18
2023-02-01T22:51:38.551Z,75.86
2023-02-01T22:54:17.815Z,75.87
2023-02-01T22:56:50.329Z,76.62
2023-02-01T22:59:22.261Z,76.46
2023-02-01T23:01:54.338Z,76.34
2023-02-01T23:04:26.408Z,76.95
2023-02-01T23:06:58.447Z,77.61
2023-02-01T23:09:30.561Z,77.71
2023-02-01T23:12:02.483Z,78.00
2023-02-01T23:14:54.744Z,78.51
2023-02-01T23:17:26.671Z,77.76
2023-02-01T23:19:58.896Z,78.70
2023-02-01T23:22:31.022Z,78.63
2023-02-01T23:25:02.990Z,78.82
2023-02-01T23:27:34.966Z,78.66
2023-02-01T23:30:08.443Z,79.17
2023-02-01T23:32:40.529Z,79.13
2023-02-01T23:35:12.546Z,79.48
2023-02-01T23:37:47.315Z,79.50
2023-02-01T23:40:19.531Z,79.23
2023-02-01T23:43:11.410Z,79.24
2023-02-01T23:45:43.361Z,79.08
2023-02-01T23:48:15.309Z,79.34
2023-02-01T23:50:47.287Z,80.15
2023-02-01T23:53:19.621Z,79.82
2023-02-01T23:55:54.205Z,80.48
2023-02-01T23:58:26.616Z,80.54
